AirNav   Phillips 66 Aviation Fuel
 
 947 users online  

20M Macon Municipal Airport
Macon, Mississippi, USA

GOING TO MACON?


FAA INFORMATION EFFECTIVE 07 DECEMBER 2017

Location

FAA Identifier: 20M
Lat/Long: 33-08-01.4000N / 088-32-09.6000W
33-08.023333N / 088-32.160000W
33.1337222 / -88.5360000
(estimated)
Elevation: 238 ft. / 72.5 m (surveyed)
Variation: 01E (1985)
From city: 2 miles E of MACON, MS
Time zone: UTC -6 (UTC -5 during Daylight Saving Time)
Zip code: 39341

Airport Operations

Airport use: Open to the public
Activation date: 10/1964
Control tower: no
ARTCC: MEMPHIS CENTER
FSS: GREENWOOD FLIGHT SERVICE STATION
NOTAMs facility: GWO (NOTAM-D service available)
Attendance: UNATNDD
Wind indicator: lighted
Segmented circle: yes
Lights: ACTVT MIRL RY 18/36 - CTAF.
Beacon: white-green (lighted land airport)
Operates sunset to sunrise.

Airport Communications

CTAF/UNICOM: 122.7
WX AWOS-3PT at GTR (19 nm N): 126.375 (662-328-7798)

Nearby radio navigation aids

VOR radial/distance  VOR name  Freq  Var
IGBr179/21.1BIGBEE VORTAC116.2004E
CBMr189/30.9CALEDONIA VORTAC115.2000E

Airport Services

Fuel available: 100LL
AVAIL. 24/7 WITH CC.
Parking: tiedowns
Bottled oxygen: NONE
Bulk oxygen: NONE

Runway Information

Runway 18/36

Dimensions: 3000 x 50 ft. / 914 x 15 m
Surface: asphalt, in good condition
Weight bearing capacity: 
Single wheel: 28.0
Runway edge lights: medium intensity
RUNWAY 18  RUNWAY 36
Latitude: 33-08.270638N33-07.775847N
Longitude: 088-32.162997W088-32.157597W
Elevation: 228.0 ft.221.0 ft.
Gradient: 0.4%0.4%
Traffic pattern: leftleft
Runway heading: 178 magnetic, 179 true359 magnetic, 360 true
Markings: basic, in fair conditionbasic, in fair condition
Obstructions: none35 ft. tree, 1008 ft. from runway, 100 ft. left of centerline, 22:1 slope to clear

Airport Ownership and Management from official FAA records

Ownership: Publicly-owned
Owner: CITY OF MACON
105 W PULASKI ST, BOX 29
MACON, MS 39341
Phone 662-726-5847
Manager: ROBERT E. BOYKIN-MAYOR
105 W PULASKI ST/BOX 29
MACON, MS 39341
Phone 662-726-5847

Airport Operational Statistics

Aircraft based on the field: 13
Single engine airplanes: 12
Helicopters: 1
    
Aircraft operations: avg 121/week *
62% transient general aviation
38% local general aviation
* for 12-month period ending 23 January 2017

Additional Remarks

DUE TO LIMITED LINE OF SIGHT ALL ACFT ARE REQUIRED TO ANNOUNCE TKOF & LNDG ON CTAF.

Instrument Procedures

There are no published instrument procedures at 20M.

Some nearby airports with instrument procedures:

KAIV - George Downer Airport (17 nm E)
KGTR - Golden Triangle Regional Airport (19 nm N)
KUBS - Columbus-Lowndes County Airport (21 nm N)
M51 - Oktibbeha Airport (23 nm N)
KSTF - George M Bryan Airport (24 nm NW)
 
Loc | Ops | Rwys | IFR | FBO | Links
Com | Nav | Svcs | Stats | Notes


 
Area around 20M (Macon Municipal Airport)
 
Road maps at: MapQuest Bing Google
 
Aerial photo
WARNING: Photo may not be current or correct
Aerial photo of 20M (Macon Municipal Airport)
Photo by Dale Weaver
Taken in November 2017
looking north.

Do you have a better or more recent aerial photo of Macon Municipal Airport that you would like to share? If so, please send us your photo.

 
Sectional chart

 
Airport distance calculator
Flying to Macon Municipal Airport? Find the distance to fly.

From to 20M

Sunrise and sunset
Times for 15-Dec-2017
 Local
(UTC-6)
 Zulu
(UTC)
Morning civil twilight06:2412:24
Sunrise06:5112:51
Sunset16:4822:48
Evening civil twilight17:1523:15

Current date and time
Zulu (UTC)  15-Dec-2017 13:47:45
Local (UTC-6)  15-Dec-2017 07:47:45
 
METAR
KGTR 
19nm N 
151256Z 32004KT 10SM CLR 00/M02 A3019 RMK AO2 SLP226 T00001022 FZRANO
KSTF 
24nm NW 
151335Z AUTO 33003KT 10SM CLR 00/M02 A3020 RMK AO2
KCBM 
30nm N 
151256Z AUTO 00000KT 10SM CLR M02/M02 A3018 RMK AO2 SLP224 T10161023 $
KNMM 
36nm S 
151256Z 32003KT 10SM OVC220 02/M01 A3018 RMK AO2 SLP231 T00221011 $
TAF
KGTR 
19nm N 
151125Z 1512/1612 34005KT P6SM SKC
NOTAMs
Click for the latest NOTAMs
NOTAMs are issued by the DoD/FAA and will open in a separate window not controlled by AirNav.

 

 
 

Would you like to see your business listed on this page?

 If your business provides an interesting product or service to pilots, flight crews, aircraft, or users of the Macon Municipal Airport, you should consider listing it here.  To start the listing process, click on the button below
 
Add a business
 

Other Pages about Macon Municipal Airport

Update a link
 
Copyright © AirNav, LLC. All rights reserved. Privacy Policy  Contact